createdAt,value
2022-09-21T00:01:14.929Z,21.30
2022-09-21T00:03:43.830Z,21.30
2022-09-21T00:06:13.428Z,21.20
2022-09-21T00:08:41.773Z,21.20
2022-09-21T00:11:13.980Z,21.30
2022-09-21T00:13:43.485Z,21.20
2022-09-21T00:16:13.359Z,21.20
2022-09-21T00:18:41.265Z,21.20
2022-09-21T00:21:10.441Z,21.20
2022-09-21T00:23:38.952Z,21.10
2022-09-21T00:26:12.856Z,21.10
2022-09-21T00:28:41.593Z,21.00
2022-09-21T00:31:14.385Z,21.00
2022-09-21T00:33:44.029Z,21.00
2022-09-21T00:36:14.889Z,21.00
2022-09-21T00:38:43.272Z,20.90
2022-09-21T00:41:14.438Z,20.90
2022-09-21T00:43:48.163Z,20.90
2022-09-21T00:46:26.519Z,20.90
2022-09-21T00:48:54.999Z,20.90
2022-09-21T00:51:23.293Z,20.80
2022-09-21T00:53:55.748Z,20.80
2022-09-21T00:56:25.030Z,20.80
2022-09-21T00:58:55.217Z,20.80
2022-09-21T01:01:24.989Z,20.70
2022-09-21T01:03:56.370Z,20.70
2022-09-21T01:06:25.585Z,20.70
2022-09-21T01:08:59.099Z,20.70
2022-09-21T01:11:34.329Z,20.70
2022-09-21T01:14:26.503Z,20.70
2022-09-21T01:17:03.503Z,20.60
2022-09-21T01:20:08.649Z,20.60
2022-09-21T01:22:51.046Z,20.60
2022-09-21T01:25:29.922Z,20.60
2022-09-21T01:28:08.035Z,20.50
2022-09-21T01:30:39.751Z,20.50
2022-09-21T01:33:14.967Z,20.50
2022-09-21T01:35:47.865Z,20.50
2022-09-21T01:38:20.629Z,20.40
2022-09-21T01:40:53.027Z,20.40
2022-09-21T01:43:26.449Z,20.40
2022-09-21T01:46:02.221Z,20.40
2022-09-21T01:48:35.238Z,20.40
2022-09-21T01:51:08.249Z,20.30
2022-09-21T01:53:43.177Z,20.30
2022-09-21T01:56:15.390Z,20.30
2022-09-21T01:58:48.972Z,20.30
2022-09-21T02:01:24.046Z,20.30
2022-09-21T02:03:55.403Z,20.30
2022-09-21T02:06:26.067Z,20.20
2022-09-21T02:08:54.621Z,20.20
2022-09-21T02:11:22.990Z,20.20
2022-09-21T02:13:54.288Z,20.20
2022-09-21T02:16:39.093Z,20.20
2022-09-21T02:19:13.921Z,20.20
2022-09-21T02:21:54.422Z,20.10
2022-09-21T02:24:33.938Z,20.10
2022-09-21T02:27:07.069Z,20.10
2022-09-21T02:29:48.077Z,20.10
2022-09-21T02:32:26.278Z,20.10
2022-09-21T02:35:00.073Z,20.00
2022-09-21T02:37:35.724Z,20.00
2022-09-21T02:40:10.805Z,20.00
2022-09-21T02:42:43.728Z,20.00
2022-09-21T02:45:18.265Z,19.90
2022-09-21T02:47:52.202Z,19.90
2022-09-21T02:50:25.004Z,19.90
2022-09-21T02:52:55.916Z,19.80
2022-09-21T02:55:25.038Z,19.80
2022-09-21T02:57:54.882Z,19.80
2022-09-21T03:00:23.112Z,19.80
2022-09-21T03:02:52.646Z,19.80
2022-09-21T03:05:20.772Z,19.80
2022-09-21T03:07:49.025Z,19.80
2022-09-21T03:10:19.168Z,19.70
2022-09-21T03:12:47.245Z,19.70
2022-09-21T03:15:18.338Z,19.70
2022-09-21T03:17:46.460Z,19.60
2022-09-21T03:20:16.553Z,19.60
2022-09-21T03:22:44.403Z,19.60
2022-09-21T03:25:13.369Z,19.60
2022-09-21T03:27:42.795Z,19.60
2022-09-21T03:30:11.987Z,19.60
2022-09-21T03:32:40.069Z,19.50
2022-09-21T03:35:08.779Z,19.50
2022-09-21T03:37:41.326Z,19.50
2022-09-21T03:40:11.639Z,19.50
2022-09-21T03:42:39.812Z,19.40
2022-09-21T03:45:09.271Z,19.50
2022-09-21T03:47:37.348Z,19.40
2022-09-21T03:50:09.966Z,19.40
2022-09-21T03:52:39.858Z,19.40
2022-09-21T03:55:10.370Z,19.30
2022-09-21T03:57:39.312Z,19.30
2022-09-21T04:00:11.052Z,19.30
2022-09-21T04:02:40.561Z,19.30
2022-09-21T04:05:09.760Z,19.30
2022-09-21T04:07:40.804Z,19.30
2022-09-21T04:10:13.017Z,19.20
2022-09-21T04:12:43.398Z,19.20
2022-09-21T04:15:12.789Z,19.20
2022-09-21T04:17:41.081Z,19.20
2022-09-21T04:20:10.325Z,19.10
2022-09-21T04:22:43.335Z,19.10
2022-09-21T04:25:13.232Z,19.10
2022-09-21T04:27:41.668Z,19.10
2022-09-21T04:30:12.248Z,19.10
2022-09-21T04:32:40.422Z,19.10
2022-09-21T04:35:09.455Z,19.10
2022-09-21T04:37:39.174Z,19.20
2022-09-21T04:40:09.381Z,19.40
2022-09-21T04:42:37.827Z,19.50
2022-09-21T04:45:07.844Z,19.60
2022-09-21T04:47:35.728Z,19.60
2022-09-21T04:50:03.779Z,19.60
2022-09-21T04:52:32.076Z,19.50
2022-09-21T04:55:01.546Z,19.50
2022-09-21T04:57:29.696Z,19.40
2022-09-21T04:59:57.756Z,19.40
2022-09-21T05:02:26.115Z,19.40
2022-09-21T05:04:54.153Z,19.30
2022-09-21T05:07:22.216Z,19.30
2022-09-21T05:10:04.306Z,19.30
2022-09-21T05:12:35.971Z,19.20
2022-09-21T05:15:06.756Z,19.30
2022-09-21T05:17:34.851Z,19.40
2022-09-21T05:20:03.478Z,19.50
2022-09-21T05:22:31.553Z,19.50
2022-09-21T05:24:59.621Z,19.50
2022-09-21T05:27:27.708Z,19.40
2022-09-21T05:29:57.762Z,19.30
2022-09-21T05:32:28.418Z,19.10
2022-09-21T05:35:07.711Z,19.10
2022-09-21T05:37:53.412Z,19.00
2022-09-21T05:40:22.377Z,18.90
2022-09-21T05:42:51.065Z,18.90
2022-09-21T05:45:23.074Z,18.90
2022-09-21T05:47:59.402Z,18.80
2022-09-21T05:50:42.141Z,18.80
2022-09-21T05:53:40.045Z,18.70
2022-09-21T05:56:15.844Z,18.80
2022-09-21T05:58:50.392Z,18.90
2022-09-21T06:01:36.620Z,19.00
2022-09-21T06:04:05.712Z,19.10
2022-09-21T06:06:33.817Z,19.20
2022-09-21T06:09:01.867Z,19.20
2022-09-21T06:11:30.009Z,19.20
2022-09-21T06:13:58.165Z,19.20
2022-09-21T06:16:27.729Z,19.30
2022-09-21T06:18:55.842Z,19.30
2022-09-21T06:21:23.866Z,19.40
2022-09-21T06:23:51.953Z,19.50
2022-09-21T06:26:20.014Z,19.50
2022-09-21T06:28:48.135Z,19.50
2022-09-21T06:31:16.160Z,19.50
2022-09-21T06:33:48.098Z,19.40
2022-09-21T06:36:17.869Z,19.30
2022-09-21T06:38:45.960Z,19.30
2022-09-21T06:41:18.643Z,19.20
2022-09-21T06:43:49.029Z,19.20
2022-09-21T06:46:17.114Z,19.30
2022-09-21T06:48:46.573Z,19.30
2022-09-21T06:51:14.629Z,19.40
2022-09-21T06:53:42.703Z,19.50
2022-09-21T06:56:12.242Z,19.50
2022-09-21T06:58:40.331Z,19.70
2022-09-21T07:01:09.931Z,19.70
2022-09-21T07:03:39.590Z,19.80
2022-09-21T07:06:11.389Z,19.90
2022-09-21T07:11:28.357Z,20.10
2022-09-21T07:13:58.512Z,20.30
2022-09-21T07:16:28.060Z,20.40
2022-09-21T07:18:57.027Z,20.50
2022-09-21T07:21:27.303Z,20.70
2022-09-21T07:23:55.725Z,20.80
2022-09-21T07:26:23.902Z,21.00
2022-09-21T07:28:52.138Z,21.10
2022-09-21T07:31:20.381Z,21.30
2022-09-21T07:33:48.652Z,21.40
2022-09-21T07:36:17.860Z,21.60
2022-09-21T07:38:47.530Z,21.70
2022-09-21T07:41:15.956Z,21.90
2022-09-21T07:43:44.352Z,22.00
2022-09-21T07:46:14.544Z,22.30
2022-09-21T07:48:42.983Z,22.50
2022-09-21T07:51:13.416Z,22.70
2022-09-21T07:53:42.779Z,23.00
2022-09-21T07:56:13.632Z,23.20
2022-09-21T07:59:00.048Z,23.70
2022-09-21T08:01:29.228Z,23.80
2022-09-21T08:03:58.598Z,24.70
2022-09-21T08:06:29.297Z,24.40
2022-09-21T08:11:30.218Z,25.00
2022-09-21T08:14:00.073Z,25.10
2022-09-21T08:16:29.305Z,25.40
2022-09-21T08:18:57.701Z,26.10
2022-09-21T08:28:57.929Z,27.30
2022-09-21T08:31:26.742Z,27.20
2022-09-21T08:33:57.630Z,27.70
2022-09-21T08:36:26.456Z,27.80
2022-09-21T08:38:56.681Z,27.30
2022-09-21T08:41:28.152Z,27.70
2022-09-21T08:44:03.274Z,27.50
2022-09-21T08:46:33.898Z,28.10
2022-09-21T08:49:07.101Z,27.70
2022-09-21T08:51:39.444Z,28.80
2022-09-21T08:54:15.181Z,27.90
2022-09-21T08:57:03.886Z,28.50
2022-09-21T08:59:32.841Z,29.60
2022-09-21T09:02:17.497Z,29.40
2022-09-21T09:04:54.551Z,29.80
2022-09-21T09:07:40.846Z,30.50
2022-09-21T09:10:22.119Z,31.40
2022-09-21T09:13:01.893Z,31.50
2022-09-21T09:15:49.759Z,32.40
2022-09-21T09:20:58.679Z,32.30
2022-09-21T09:23:29.929Z,33.30
2022-09-21T09:26:02.549Z,33.60
2022-09-21T09:28:34.653Z,32.70
2022-09-21T09:31:11.546Z,33.70
2022-09-21T09:33:53.002Z,34.70
2022-09-21T09:39:14.179Z,34.50
2022-09-21T09:41:59.651Z,35.00
2022-09-21T09:44:34.172Z,34.90
2022-09-21T09:47:06.970Z,35.10
2022-09-21T09:49:39.700Z,35.40
2022-09-21T09:52:10.143Z,35.60
2022-09-21T09:54:38.047Z,35.90
2022-09-21T09:57:07.336Z,36.10
2022-09-21T09:59:36.958Z,36.40
2022-09-21T10:02:07.193Z,36.70
2022-09-21T10:04:35.807Z,37.00
2022-09-21T10:07:03.734Z,37.20
2022-09-21T10:09:32.483Z,37.40
2022-09-21T10:12:01.797Z,37.70
2022-09-21T10:14:32.579Z,37.90
2022-09-21T10:17:02.825Z,38.10
2022-09-21T10:19:32.657Z,38.20
2022-09-21T10:22:02.672Z,38.40
2022-09-21T10:24:33.566Z,38.60
2022-09-21T10:27:07.520Z,38.80
2022-09-21T10:29:43.486Z,39.00
2022-09-21T10:32:23.484Z,39.20
2022-09-21T10:35:21.272Z,39.40
2022-09-21T10:37:53.657Z,39.60
2022-09-21T10:40:30.910Z,39.70
2022-09-21T10:43:01.367Z,39.90
2022-09-21T10:45:31.267Z,40.00
2022-09-21T10:48:07.947Z,39.90
2022-09-21T10:50:40.032Z,39.70
2022-09-21T10:53:15.352Z,39.30
2022-09-21T10:55:58.500Z,39.30
2022-09-21T10:58:36.978Z,39.50
2022-09-21T11:01:11.486Z,39.40
2022-09-21T11:03:50.479Z,39.40
2022-09-21T11:06:24.123Z,39.50
2022-09-21T11:08:57.341Z,39.70
2022-09-21T11:11:39.582Z,39.80
2022-09-21T11:14:17.980Z,40.00
2022-09-21T11:16:52.468Z,40.00
2022-09-21T11:19:29.421Z,40.10
2022-09-21T11:22:06.249Z,40.30
2022-09-21T11:24:42.805Z,40.50
2022-09-21T11:27:14.516Z,39.30
2022-09-21T11:29:51.454Z,39.30
2022-09-21T11:32:33.752Z,39.70
2022-09-21T11:35:31.505Z,40.20
2022-09-21T11:38:06.931Z,40.30
2022-09-21T11:40:50.651Z,38.90
2022-09-21T11:43:31.908Z,37.40
2022-09-21T11:46:08.873Z,36.70
2022-09-21T11:48:51.100Z,37.50
2022-09-21T11:51:38.428Z,38.20
2022-09-21T11:54:38.123Z,37.50
2022-09-21T11:57:17.018Z,37.30
2022-09-21T12:00:04.303Z,36.70
2022-09-21T12:03:03.929Z,36.20
2022-09-21T12:05:40.057Z,36.30
2022-09-21T12:09:02.723Z,37.30
2022-09-21T12:11:38.073Z,37.80
2022-09-21T12:14:18.201Z,38.10
2022-09-21T12:16:54.881Z,37.20
2022-09-21T12:22:02.818Z,33.10
2022-09-21T12:24:35.479Z,33.30
2022-09-21T12:27:11.192Z,33.10
2022-09-21T12:29:47.277Z,33.10
2022-09-21T12:32:22.845Z,34.50
2022-09-21T12:34:56.037Z,34.70
2022-09-21T12:37:31.448Z,34.90
2022-09-21T12:40:06.094Z,36.70
2022-09-21T12:42:41.737Z,36.70
2022-09-21T12:45:20.653Z,37.10
2022-09-21T12:47:59.299Z,37.10
2022-09-21T12:50:34.362Z,37.90
2022-09-21T12:53:03.913Z,36.40
2022-09-21T12:55:45.516Z,36.60
2022-09-21T12:58:25.760Z,37.20
2022-09-21T13:01:03.347Z,37.50
2022-09-21T13:03:37.261Z,37.40
2022-09-21T13:06:29.381Z,37.10
2022-09-21T13:08:59.416Z,37.50
2022-09-21T13:11:27.531Z,38.00
2022-09-21T13:14:00.944Z,38.00
2022-09-21T13:16:32.509Z,37.00
2022-09-21T13:19:02.764Z,35.80
2022-09-21T13:21:33.039Z,35.40
2022-09-21T13:24:03.139Z,35.50
2022-09-21T13:26:36.919Z,35.60
2022-09-21T13:29:28.963Z,35.00
2022-09-21T13:31:59.799Z,35.20
2022-09-21T13:34:30.449Z,35.70
2022-09-21T13:37:31.939Z,36.30
2022-09-21T13:40:40.192Z,36.60
2022-09-21T13:43:26.293Z,37.10
2022-09-21T13:45:59.465Z,37.60
2022-09-21T13:48:30.708Z,38.00
2022-09-21T13:51:01.825Z,38.40
2022-09-21T13:53:39.155Z,38.70
2022-09-21T13:56:19.227Z,38.70
2022-09-21T13:58:52.183Z,39.00
2022-09-21T14:01:57.921Z,39.30
2022-09-21T14:04:23.702Z,39.50
2022-09-21T14:06:54.277Z,39.70
2022-09-21T14:09:28.449Z,39.80
2022-09-21T14:11:59.853Z,39.90
2022-09-21T14:14:33.064Z,40.40
2022-09-21T14:17:03.700Z,40.60
2022-09-21T14:20:07.962Z,40.80
2022-09-21T14:22:42.037Z,41.10
2022-09-21T14:25:53.300Z,41.20
2022-09-21T14:28:36.857Z,41.20
2022-09-21T14:31:09.007Z,41.30
2022-09-21T14:33:45.972Z,41.20
2022-09-21T14:36:19.595Z,41.40
2022-09-21T14:38:54.409Z,41.30
2022-09-21T14:41:34.524Z,41.30
2022-09-21T14:44:02.929Z,41.30
2022-09-21T14:46:49.495Z,41.40
2022-09-21T14:49:35.250Z,41.10
2022-09-21T14:52:29.097Z,40.70
2022-09-21T14:55:10.156Z,40.70
2022-09-21T14:57:51.237Z,40.50
2022-09-21T15:00:24.519Z,40.20
2022-09-21T15:03:11.041Z,40.10
2022-09-21T15:05:44.626Z,40.10
2022-09-21T15:08:46.232Z,40.80
2022-09-21T15:11:23.412Z,41.40
2022-09-21T15:14:15.753Z,42.10
2022-09-21T15:16:45.758Z,42.50
2022-09-21T15:19:17.459Z,42.90
2022-09-21T15:21:49.016Z,43.10
2022-09-21T15:24:22.849Z,43.30
2022-09-21T15:26:52.661Z,43.40
2022-09-21T15:29:25.894Z,43.50
2022-09-21T15:31:55.146Z,43.40
2022-09-21T15:34:24.491Z,43.40
2022-09-21T15:36:53.968Z,43.40
2022-09-21T15:39:28.220Z,43.40
2022-09-21T15:42:19.751Z,43.10
2022-09-21T15:44:50.764Z,42.10
2022-09-21T15:47:22.395Z,41.10
2022-09-21T15:49:52.184Z,40.80
2022-09-21T15:52:28.682Z,40.80
2022-09-21T15:55:00.850Z,40.40
2022-09-21T15:57:39.239Z,40.20
2022-09-21T16:00:20.357Z,39.90
2022-09-21T16:03:07.535Z,39.50
2022-09-21T16:05:45.976Z,39.10
2022-09-21T16:08:35.265Z,38.50
2022-09-21T16:11:15.653Z,38.00
2022-09-21T16:14:02.160Z,37.50
2022-09-21T16:16:30.626Z,37.10
2022-09-21T16:19:00.727Z,36.60
2022-09-21T16:21:32.864Z,36.30
2022-09-21T16:24:19.175Z,35.90
2022-09-21T16:26:58.855Z,35.60
2022-09-21T16:29:29.481Z,35.20
2022-09-21T16:32:21.381Z,35.00
2022-09-21T16:34:51.835Z,34.60
2022-09-21T16:37:25.319Z,34.30
2022-09-21T16:47:25.487Z,32.90
2022-09-21T16:49:56.447Z,31.50
2022-09-21T16:57:25.925Z,31.60
2022-09-21T16:59:54.262Z,31.50
2022-09-21T17:04:51.822Z,31.00
2022-09-21T17:07:19.998Z,31.40
2022-09-21T17:09:48.369Z,30.60
2022-09-21T17:12:20.387Z,29.90
2022-09-21T17:14:50.127Z,30.50
2022-09-21T17:17:20.945Z,30.30
2022-09-21T17:19:50.049Z,30.70
2022-09-21T17:22:18.648Z,30.80
2022-09-21T17:24:51.361Z,30.70
2022-09-21T17:27:24.301Z,30.80
2022-09-21T17:29:54.028Z,30.70
2022-09-21T17:32:24.285Z,30.70
2022-09-21T17:34:58.868Z,30.60
2022-09-21T17:37:27.186Z,30.50
2022-09-21T17:39:55.330Z,30.30
2022-09-21T17:45:12.541Z,30.00
2022-09-21T17:47:41.800Z,29.70
2022-09-21T17:50:23.053Z,30.60
2022-09-21T17:53:09.584Z,29.50
2022-09-21T17:55:38.535Z,28.90
2022-09-21T17:58:17.412Z,29.80
2022-09-21T18:00:54.492Z,28.50
2022-09-21T18:03:24.831Z,28.50
2022-09-21T18:05:59.449Z,29.80
2022-09-21T18:08:28.719Z,28.80
2022-09-21T18:11:07.524Z,28.30
2022-09-21T18:13:47.125Z,28.80
2022-09-21T18:16:33.727Z,28.70
2022-09-21T18:19:27.547Z,28.20
2022-09-21T18:22:02.581Z,29.20
2022-09-21T18:24:32.317Z,28.30
2022-09-21T18:27:01.825Z,28.70
2022-09-21T18:29:41.072Z,28.60
2022-09-21T18:32:39.693Z,28.30
2022-09-21T18:35:24.846Z,27.50
2022-09-21T18:38:05.667Z,26.90
2022-09-21T18:40:41.519Z,24.90
2022-09-21T18:43:27.573Z,23.80
2022-09-21T18:46:02.833Z,23.30
2022-09-21T18:48:51.713Z,23.00
2022-09-21T18:51:25.909Z,22.80
2022-09-21T18:53:56.458Z,22.60
2022-09-21T18:56:25.763Z,21.50
2022-09-21T18:58:54.756Z,22.40
2022-09-21T19:01:26.889Z,21.40
2022-09-21T19:03:55.604Z,22.10
2022-09-21T19:06:48.431Z,21.50
2022-09-21T19:09:30.793Z,21.80
2022-09-21T19:12:07.239Z,21.20
2022-09-21T19:14:44.407Z,21.60
2022-09-21T19:17:28.839Z,21.20
2022-09-21T19:20:12.493Z,21.10
2022-09-21T19:22:48.405Z,21.00
2022-09-21T19:25:24.872Z,20.90
2022-09-21T19:27:59.470Z,21.60
2022-09-21T19:30:28.285Z,22.20
2022-09-21T19:33:00.577Z,22.50
2022-09-21T19:35:30.714Z,22.70
2022-09-21T19:38:01.488Z,22.80
2022-09-21T19:40:32.904Z,22.10
2022-09-21T19:46:05.039Z,22.30
2022-09-21T19:48:42.564Z,22.50
2022-09-21T19:54:00.497Z,23.70
2022-09-21T19:59:32.278Z,24.10
2022-09-21T20:02:04.117Z,24.20
2022-09-21T20:04:40.672Z,24.20
2022-09-21T20:07:18.966Z,24.20
2022-09-21T20:09:57.298Z,24.60
2022-09-21T20:12:29.928Z,25.20
2022-09-21T20:15:04.422Z,24.60
2022-09-21T20:17:37.382Z,24.40
2022-09-21T20:20:13.842Z,24.60
2022-09-21T20:22:42.950Z,24.60
2022-09-21T20:25:17.663Z,25.00
2022-09-21T20:27:48.433Z,25.50
2022-09-21T20:30:18.665Z,24.60
2022-09-21T20:32:50.822Z,24.60
2022-09-21T20:35:23.913Z,24.20
2022-09-21T20:37:52.409Z,25.40
2022-09-21T20:40:24.673Z,24.60
2022-09-21T20:50:21.024Z,25.20
2022-09-21T20:55:20.385Z,24.90
2022-09-21T21:00:18.603Z,24.00
2022-09-21T21:07:44.809Z,24.80
2022-09-21T21:10:14.164Z,23.90
2022-09-21T21:15:12.507Z,24.70
2022-09-21T21:17:42.156Z,24.00
2022-09-21T21:20:11.558Z,24.40
2022-09-21T21:25:10.252Z,24.30
2022-09-21T21:30:08.631Z,23.80
2022-09-21T21:35:06.092Z,24.30
2022-09-21T21:37:34.197Z,24.30
2022-09-21T21:40:03.355Z,24.60
2022-09-21T21:42:32.852Z,23.40
2022-09-21T21:45:00.911Z,23.70
2022-09-21T21:47:44.335Z,23.90
2022-09-21T21:50:12.521Z,23.70
2022-09-21T21:55:10.172Z,23.90
2022-09-21T21:57:40.014Z,24.10
2022-09-21T22:00:09.208Z,23.80
2022-09-21T22:02:37.381Z,23.80
2022-09-21T22:05:05.861Z,23.50
2022-09-21T22:07:33.967Z,24.00
2022-09-21T22:10:02.040Z,23.80
2022-09-21T22:12:30.080Z,24.60
2022-09-21T22:14:59.646Z,23.40
2022-09-21T22:17:27.752Z,23.80
2022-09-21T22:19:56.402Z,23.80
2022-09-21T22:22:24.694Z,23.70
2022-09-21T22:24:52.773Z,23.70
2022-09-21T22:27:20.793Z,24.10
2022-09-21T22:29:48.872Z,23.60
2022-09-21T22:32:18.857Z,23.40
2022-09-21T22:34:46.928Z,23.40
2022-09-21T22:37:14.976Z,23.90
2022-09-21T22:39:43.821Z,23.50
2022-09-21T22:42:12.133Z,23.40
2022-09-21T22:44:40.209Z,23.10
2022-09-21T22:47:08.283Z,23.50
2022-09-21T22:49:37.819Z,23.70
2022-09-21T22:52:06.047Z,23.40
2022-09-21T22:57:02.471Z,23.10
2022-09-21T22:59:30.550Z,23.30
2022-09-21T23:01:58.576Z,23.10
2022-09-21T23:04:26.745Z,23.00
2022-09-21T23:06:56.213Z,23.00
2022-09-21T23:09:24.336Z,23.20
2022-09-21T23:11:53.788Z,23.10
2022-09-21T23:14:23.061Z,22.90
2022-09-21T23:16:51.327Z,23.30
2022-09-21T23:19:19.418Z,23.10
2022-09-21T23:21:50.435Z,23.00
2022-09-21T23:24:20.783Z,22.70
2022-09-21T23:26:51.526Z,22.90
2022-09-21T23:29:19.693Z,23.30
2022-09-21T23:31:47.842Z,22.60
2022-09-21T23:34:17.123Z,23.00
2022-09-21T23:36:45.988Z,22.90
2022-09-21T23:39:15.561Z,22.90
2022-09-21T23:41:45.310Z,22.80
2022-09-21T23:44:13.434Z,22.90
2022-09-21T23:46:41.786Z,22.70
2022-09-21T23:49:10.306Z,22.80
2022-09-21T23:51:38.421Z,22.70
2022-09-21T23:54:06.612Z,22.80
2022-09-21T23:56:35.047Z,22.60
2022-09-21T23:59:05.513Z,22.20
